createdAt,value
2023-10-16T00:00:00.179Z,4.3
2023-10-16T00:05:00.080Z,6.2
2023-10-16T00:10:00.106Z,2.7
2023-10-16T00:15:00.141Z,2.5
2023-10-16T00:20:00.088Z,3.6
2023-10-16T00:25:00.264Z,3.9
2023-10-16T00:30:00.099Z,3.5
2023-10-16T00:35:00.115Z,2.9
2023-10-16T00:40:00.090Z,3.8
2023-10-16T00:45:00.085Z,4.1
2023-10-16T00:50:00.096Z,2.8
2023-10-16T00:55:00.161Z,2.3
2023-10-16T01:00:00.339Z,2.5
2023-10-16T01:05:00.090Z,3.7
2023-10-16T01:10:00.151Z,4.1
2023-10-16T01:15:00.134Z,2.5
2023-10-16T01:20:00.096Z,3.2
2023-10-16T01:25:00.108Z,3.9
2023-10-16T01:30:00.112Z,3
2023-10-16T01:35:00.126Z,5
2023-10-16T01:40:00.103Z,3.2
2023-10-16T01:45:00.104Z,3.7
2023-10-16T01:50:00.105Z,3
2023-10-16T01:55:00.201Z,3.6
2023-10-16T02:00:00.197Z,2.3
2023-10-16T02:05:00.080Z,3.4
2023-10-16T02:10:00.140Z,2.7
2023-10-16T02:15:00.129Z,3.8
2023-10-16T02:20:00.116Z,4.4
2023-10-16T02:25:00.147Z,4.3
2023-10-16T02:30:00.190Z,2.9
2023-10-16T02:35:00.129Z,3.6
2023-10-16T02:40:00.175Z,3.2
2023-10-16T02:45:00.083Z,2.9
2023-10-16T02:50:00.098Z,5.2
2023-10-16T02:55:00.124Z,3.7
2023-10-16T03:00:00.161Z,6.2
2023-10-16T03:05:00.125Z,3.1
2023-10-16T03:10:00.127Z,4
2023-10-16T03:15:00.170Z,4.6
2023-10-16T03:20:00.124Z,5.5
2023-10-16T03:25:00.111Z,3.8
2023-10-16T03:30:00.216Z,4.7
2023-10-16T03:35:00.128Z,6
2023-10-16T03:40:00.133Z,7.2
2023-10-16T03:45:00.080Z,8.4
2023-10-16T03:50:00.107Z,6
2023-10-16T03:55:00.252Z,4.6
2023-10-16T04:00:00.163Z,4.3
2023-10-16T04:05:00.084Z,4.8
2023-10-16T04:10:01.225Z,5.9
2023-10-16T04:15:00.136Z,8.5
2023-10-16T04:20:00.097Z,5.7
2023-10-16T04:25:00.102Z,7
2023-10-16T04:30:00.184Z,6.7
2023-10-16T04:35:00.107Z,5.3
2023-10-16T04:40:00.125Z,6
2023-10-16T04:45:00.084Z,5.4
2023-10-16T04:50:01.641Z,5.1
2023-10-16T04:55:00.324Z,6.7
2023-10-16T05:00:00.189Z,4.5
2023-10-16T05:05:00.081Z,6.1
2023-10-16T05:10:00.130Z,5.6
2023-10-16T05:15:00.127Z,8.8
2023-10-16T05:20:00.117Z,9.2
2023-10-16T05:25:00.129Z,6.2
2023-10-16T05:30:00.108Z,6.6
2023-10-16T05:35:00.137Z,5.8
2023-10-16T05:40:00.256Z,6.7
2023-10-16T05:45:00.094Z,6.7
2023-10-16T05:50:00.095Z,6.3
2023-10-16T05:55:00.164Z,7.1
2023-10-16T06:00:00.155Z,6.6
2023-10-16T06:05:00.189Z,6.1
2023-10-16T06:10:00.136Z,6.1
2023-10-16T06:15:00.155Z,11
2023-10-16T06:20:00.122Z,9.5
2023-10-16T06:25:00.180Z,12.3
2023-10-16T06:30:00.132Z,9.8
2023-10-16T06:35:00.216Z,6.9
2023-10-16T06:40:00.664Z,8.3
2023-10-16T06:45:00.122Z,7.4
2023-10-16T06:50:00.104Z,10.4
2023-10-16T06:55:00.185Z,7.5
2023-10-16T07:00:00.180Z,10.6
2023-10-16T07:05:01.114Z,10.8
2023-10-16T07:10:00.145Z,6.4
2023-10-16T07:15:00.173Z,8.6
2023-10-16T07:20:00.333Z,11.4
2023-10-16T07:25:00.170Z,12.9
2023-10-16T07:30:00.123Z,13.2
2023-10-16T07:35:00.125Z,9
2023-10-16T07:40:00.211Z,11.3
2023-10-16T07:45:00.085Z,7.5
2023-10-16T07:50:00.108Z,14
2023-10-16T07:55:00.163Z,11
2023-10-16T08:00:00.115Z,10.5
2023-10-16T08:05:00.088Z,8.5
2023-10-16T08:10:00.185Z,9.9
2023-10-16T08:15:00.118Z,8.6
2023-10-16T08:20:00.129Z,9.1
2023-10-16T08:25:00.100Z,13.4
2023-10-16T08:30:00.442Z,9.1
2023-10-16T08:35:02.183Z,8.7
2023-10-16T08:40:00.168Z,14.9
2023-10-16T08:45:00.091Z,8.6
2023-10-16T08:50:00.120Z,7.7
2023-10-16T08:55:00.193Z,8.6
2023-10-16T09:00:00.101Z,7.5
2023-10-16T09:05:00.082Z,7.3
2023-10-16T09:10:00.178Z,6.8
2023-10-16T09:15:00.151Z,7.9
2023-10-16T09:20:05.753Z,6.6
2023-10-16T09:25:00.128Z,5.7
2023-10-16T09:30:00.257Z,5.2
2023-10-16T09:35:00.129Z,7
2023-10-16T09:40:00.121Z,5.8
2023-10-16T09:45:00.107Z,7.6
2023-10-16T09:50:00.146Z,7.8
2023-10-16T09:55:00.256Z,7
2023-10-16T10:00:00.132Z,5.8
2023-10-16T10:05:00.105Z,3.3
2023-10-16T10:10:00.142Z,5.7
2023-10-16T10:15:00.204Z,6.4
2023-10-16T10:20:00.099Z,4.7
2023-10-16T10:25:00.891Z,4.6
2023-10-16T10:30:00.178Z,6.1
2023-10-16T10:35:00.202Z,4.7
2023-10-16T10:40:00.115Z,4.7
2023-10-16T10:45:00.089Z,8.2
2023-10-16T10:50:00.085Z,2.5
2023-10-16T10:55:00.255Z,5.2
2023-10-16T11:00:00.149Z,5.6
2023-10-16T11:05:00.391Z,4.3
2023-10-16T11:10:00.154Z,5.8
2023-10-16T11:15:00.265Z,6
2023-10-16T11:20:00.221Z,5.5
2023-10-16T11:25:00.137Z,5.1
2023-10-16T11:30:00.137Z,4.6
2023-10-16T11:35:00.260Z,5.6
2023-10-16T11:40:00.178Z,3.2
2023-10-16T11:45:00.087Z,5.4
2023-10-16T11:50:00.117Z,3.4
2023-10-16T11:55:00.264Z,3.5
2023-10-16T12:00:00.091Z,5
2023-10-16T12:05:00.099Z,3.4
2023-10-16T12:10:01.829Z,4.8
2023-10-16T12:15:00.217Z,5
2023-10-16T12:20:00.106Z,4.3
2023-10-16T12:25:00.135Z,4.3
2023-10-16T12:30:00.144Z,3.7
2023-10-16T12:35:00.203Z,5
2023-10-16T12:40:00.168Z,3.6
2023-10-16T12:45:00.132Z,4.3
2023-10-16T12:50:00.088Z,4.6
2023-10-16T12:55:00.215Z,3.6
2023-10-16T13:00:00.153Z,7.8
2023-10-16T13:05:00.083Z,5.1
2023-10-16T13:10:00.217Z,6.5
2023-10-16T13:15:00.210Z,5.7
2023-10-16T13:20:00.098Z,5.3
2023-10-16T13:25:00.128Z,7.8
2023-10-16T13:30:00.151Z,4.6
2023-10-16T13:35:00.113Z,5.1
2023-10-16T13:40:01.127Z,5.8
2023-10-16T13:45:00.095Z,4.5
2023-10-16T13:50:00.111Z,6.3
2023-10-16T13:55:00.178Z,6.5
2023-10-16T14:00:00.135Z,4
2023-10-16T14:05:00.083Z,4
2023-10-16T14:10:00.158Z,8
2023-10-16T14:15:00.132Z,5.6
2023-10-16T14:20:00.103Z,4.7
2023-10-16T14:25:00.134Z,5.7
2023-10-16T14:30:00.138Z,6.1
2023-10-16T14:35:00.108Z,3.9
2023-10-16T14:40:00.199Z,4.2
2023-10-16T14:45:00.094Z,3.7
2023-10-16T14:50:00.098Z,7.2
2023-10-16T14:55:00.263Z,5.9
2023-10-16T15:00:00.164Z,5.1
2023-10-16T15:05:00.187Z,3.5
2023-10-16T15:10:00.155Z,7.3
2023-10-16T15:15:00.117Z,7.1
2023-10-16T15:20:00.106Z,6.3
2023-10-16T15:25:00.106Z,6
2023-10-16T15:30:00.134Z,3.4
2023-10-16T15:35:00.125Z,7.3
2023-10-16T15:40:00.184Z,4.3
2023-10-16T15:45:00.096Z,3.8
2023-10-16T15:50:00.117Z,3.5
2023-10-16T15:55:00.245Z,5.6
2023-10-16T16:00:00.109Z,4.3
2023-10-16T16:05:00.297Z,4.3
2023-10-16T16:10:00.231Z,4.4
2023-10-16T16:15:01.141Z,4.9
2023-10-16T16:20:00.121Z,5.5
2023-10-16T16:25:00.109Z,5
2023-10-16T16:30:00.095Z,4.5
2023-10-16T16:35:00.144Z,7.3
2023-10-16T16:40:00.086Z,7.8
2023-10-16T16:45:00.104Z,5.2
2023-10-16T16:50:00.125Z,5.2
2023-10-16T16:55:00.125Z,4.6
2023-10-16T17:00:00.133Z,5.1
2023-10-16T17:05:00.106Z,5.6
2023-10-16T17:10:00.096Z,6.4
2023-10-16T17:15:00.179Z,5
2023-10-16T17:20:00.096Z,8.2
2023-10-16T17:25:00.089Z,6.5
2023-10-16T17:30:00.201Z,5.3
2023-10-16T17:35:00.124Z,5.3
2023-10-16T17:40:00.118Z,6.5
2023-10-16T17:45:00.149Z,7.7
2023-10-16T17:50:01.669Z,5.8
2023-10-16T17:55:00.132Z,7
2023-10-16T18:00:00.141Z,8.1
2023-10-16T18:05:00.087Z,9.4
2023-10-16T18:10:00.133Z,7.9
2023-10-16T18:15:00.205Z,6.3
2023-10-16T18:20:00.095Z,7
2023-10-16T18:25:00.174Z,6.8
2023-10-16T18:30:00.129Z,7.1
2023-10-16T18:35:00.123Z,6.6
2023-10-16T18:40:00.090Z,8.3
2023-10-16T18:45:00.110Z,4.9
2023-10-16T18:50:00.093Z,6.9
2023-10-16T18:55:00.170Z,6.7
2023-10-16T19:00:00.242Z,7.3
2023-10-16T19:05:00.085Z,6
2023-10-16T19:10:00.128Z,7.2
2023-10-16T19:15:00.215Z,5.9
2023-10-16T19:20:00.099Z,6.3
2023-10-16T19:25:00.100Z,5.5
2023-10-16T19:30:00.185Z,6.4
2023-10-16T19:35:00.140Z,10.2
2023-10-16T19:40:00.097Z,12.5
2023-10-16T19:45:00.127Z,8.4
2023-10-16T19:50:00.093Z,5.7
2023-10-16T19:55:00.136Z,5.8
2023-10-16T20:00:00.148Z,6
2023-10-16T20:05:00.098Z,5.3
2023-10-16T20:10:00.105Z,4.8
2023-10-16T20:15:00.152Z,5.4
2023-10-16T20:20:00.090Z,3.8
2023-10-16T20:25:00.088Z,4.6
2023-10-16T20:30:00.136Z,6.9
2023-10-16T20:35:01.455Z,6.2
2023-10-16T20:40:00.198Z,4.8
2023-10-16T20:45:00.127Z,5.7
2023-10-16T20:50:00.120Z,6.2
2023-10-16T20:55:00.139Z,6.9
2023-10-16T21:00:00.156Z,6.4
2023-10-16T21:05:00.108Z,7
2023-10-16T21:10:00.160Z,6.6
2023-10-16T21:15:00.134Z,6.3
2023-10-16T21:20:00.131Z,4.7
2023-10-16T21:25:00.087Z,4.6
2023-10-16T21:30:00.154Z,4.6
2023-10-16T21:35:00.112Z,4.8
2023-10-16T21:40:00.109Z,5.1
2023-10-16T21:45:00.123Z,5.9
2023-10-16T21:50:00.108Z,3.9
2023-10-16T21:55:00.143Z,6.7
2023-10-16T22:00:00.184Z,4.2
2023-10-16T22:05:00.091Z,5
2023-10-16T22:10:00.120Z,6.6
2023-10-16T22:15:00.247Z,5.2
2023-10-16T22:20:00.099Z,4.9
2023-10-16T22:25:00.088Z,3.8
2023-10-16T22:30:00.133Z,4.5
2023-10-16T22:35:00.116Z,5.1
2023-10-16T22:40:00.091Z,5.3
2023-10-16T22:45:00.152Z,5.2
2023-10-16T22:50:00.121Z,5.5
2023-10-16T22:55:00.177Z,5.2
2023-10-16T23:00:00.249Z,5.9
2023-10-16T23:05:00.089Z,5.1
2023-10-16T23:10:00.112Z,5
2023-10-16T23:15:00.243Z,6.3
2023-10-16T23:20:00.125Z,5.4
2023-10-16T23:25:00.119Z,5.4
2023-10-16T23:30:00.158Z,5.5
2023-10-16T23:35:00.174Z,6.1
2023-10-16T23:40:00.140Z,5.7
2023-10-16T23:45:00.180Z,6
2023-10-16T23:50:00.153Z,4.8
2023-10-16T23:55:00.187Z,6
